createdAt,value
2023-02-26T00:01:31.483Z,7.85
2023-02-26T00:04:02.114Z,4.38
2023-02-26T00:06:31.926Z,9.38
2023-02-26T00:08:59.339Z,10.45
2023-02-26T00:11:26.785Z,6.18
2023-02-26T00:13:54.569Z,2.28
2023-02-26T00:16:33.545Z,4.57
2023-02-26T00:19:04.289Z,3.03
2023-02-26T00:21:32.149Z,3.25
2023-02-26T00:24:00.419Z,2.00
2023-02-26T00:26:31.076Z,4.93
2023-02-26T00:28:58.952Z,7.28
2023-02-26T00:31:27.729Z,1.63
2023-02-26T00:33:58.432Z,8.40
2023-02-26T00:36:40.935Z,6.38
2023-02-26T00:39:29.927Z,3.50
2023-02-26T00:41:58.174Z,11.93
2023-02-26T00:44:26.624Z,2.97
2023-02-26T00:47:03.870Z,11.23
2023-02-26T00:49:46.046Z,7.78
2023-02-26T00:53:05.727Z,6.50
2023-02-26T00:55:32.810Z,2.88
2023-02-26T00:57:59.872Z,2.60
2023-02-26T01:00:28.577Z,2.17
2023-02-26T01:02:56.548Z,9.80
2023-02-26T01:05:23.967Z,3.30
2023-02-26T01:08:00.216Z,4.93
2023-02-26T01:10:28.450Z,7.65
2023-02-26T01:12:57.541Z,7.00
2023-02-26T01:15:24.993Z,6.07
2023-02-26T01:18:11.768Z,6.78
2023-02-26T01:20:46.288Z,5.18
2023-02-26T01:23:16.654Z,6.47
2023-02-26T01:25:59.339Z,7.40
2023-02-26T01:28:27.622Z,6.07
2023-02-26T01:31:00.745Z,6.03
2023-02-26T01:33:44.516Z,2.58
2023-02-26T01:36:27.063Z,10.60
2023-02-26T01:39:18.054Z,8.02
2023-02-26T01:41:52.125Z,5.30
2023-02-26T01:44:54.606Z,2.63
2023-02-26T01:47:56.949Z,11.40
2023-02-26T01:50:29.924Z,1.35
2023-02-26T01:53:25.864Z,2.45
2023-02-26T01:56:01.749Z,6.70
2023-02-26T01:58:33.446Z,2.42
2023-02-26T02:01:01.316Z,3.92
2023-02-26T02:03:32.168Z,8.48
2023-02-26T02:06:12.088Z,6.68
2023-02-26T02:08:39.471Z,9.45
2023-02-26T02:11:09.806Z,5.10
2023-02-26T02:13:51.900Z,4.88
2023-02-26T02:16:37.303Z,1.85
2023-02-26T02:19:22.788Z,7.47
2023-02-26T02:22:20.176Z,3.55
2023-02-26T02:25:14.961Z,2.53
2023-02-26T02:28:15.545Z,3.67
2023-02-26T02:31:09.922Z,1.65
2023-02-26T02:33:52.064Z,10.32
2023-02-26T02:36:45.140Z,1.73
2023-02-26T02:39:36.349Z,7.75
2023-02-26T02:42:09.225Z,2.55
2023-02-26T02:44:41.923Z,3.40
2023-02-26T02:47:11.567Z,5.57
2023-02-26T02:49:46.343Z,2.63
2023-02-26T02:52:19.296Z,2.78
2023-02-26T02:54:55.683Z,4.35
2023-02-26T02:57:28.733Z,7.30
2023-02-26T03:00:01.065Z,2.58
2023-02-26T03:02:39.892Z,5.43
2023-02-26T03:05:07.929Z,2.85
2023-02-26T03:07:54.611Z,5.68
2023-02-26T03:10:22.027Z,3.72
2023-02-26T03:12:49.098Z,2.22
2023-02-26T03:15:22.758Z,8.88
2023-02-26T03:20:33.899Z,2.50
2023-02-26T03:23:06.092Z,2.72
2023-02-26T03:25:45.440Z,4.22
2023-02-26T03:28:31.453Z,2.75
2023-02-26T03:31:07.410Z,4.38
2023-02-26T03:34:00.741Z,2.22
2023-02-26T03:36:53.275Z,1.23
2023-02-26T03:39:29.726Z,1.33
2023-02-26T03:42:00.505Z,2.00
2023-02-26T03:44:35.146Z,5.80
2023-02-26T03:47:08.037Z,9.90
2023-02-26T03:49:41.573Z,2.28
2023-02-26T03:52:08.913Z,7.13
2023-02-26T03:54:41.442Z,5.07
2023-02-26T03:57:08.562Z,6.07
2023-02-26T03:59:35.987Z,1.52
2023-02-26T04:02:14.293Z,12.70
2023-02-26T04:04:47.344Z,1.30
2023-02-26T04:07:17.020Z,3.72
2023-02-26T04:09:47.656Z,1.95
2023-02-26T04:12:15.500Z,2.78
2023-02-26T04:14:42.583Z,3.83
2023-02-26T04:17:09.728Z,3.53
2023-02-26T04:19:36.758Z,1.20
2023-02-26T04:22:03.936Z,2.28
2023-02-26T04:24:31.018Z,1.58
2023-02-26T04:26:58.976Z,4.03
2023-02-26T04:29:26.056Z,5.47
2023-02-26T04:31:53.738Z,2.05
2023-02-26T04:34:20.856Z,8.93
2023-02-26T04:36:47.965Z,8.00
2023-02-26T04:39:15.067Z,1.02
2023-02-26T04:41:42.106Z,8.80
2023-02-26T04:44:09.221Z,1.70
2023-02-26T04:46:36.505Z,1.05
2023-02-26T04:49:03.628Z,2.60
2023-02-26T04:51:30.939Z,5.97
2023-02-26T04:53:58.137Z,1.35
2023-02-26T04:56:26.689Z,3.92
2023-02-26T04:58:53.884Z,1.80
2023-02-26T05:01:20.922Z,1.65
2023-02-26T05:03:48.044Z,2.47
2023-02-26T05:06:15.172Z,3.45
2023-02-26T05:08:44.077Z,1.90
2023-02-26T05:11:11.755Z,2.17
2023-02-26T05:13:39.290Z,2.92
2023-02-26T05:16:08.084Z,3.58
2023-02-26T05:18:35.184Z,1.55
2023-02-26T05:21:02.600Z,1.55
2023-02-26T05:23:29.701Z,1.88
2023-02-26T05:25:58.955Z,3.40
2023-02-26T05:28:28.173Z,6.88
2023-02-26T05:30:58.505Z,2.65
2023-02-26T05:33:27.289Z,6.47
2023-02-26T05:35:54.597Z,3.22
2023-02-26T05:38:24.129Z,4.40
2023-02-26T05:40:51.169Z,3.35
2023-02-26T05:43:18.246Z,3.10
2023-02-26T05:45:45.370Z,6.95
2023-02-26T05:48:13.239Z,1.38
2023-02-26T05:50:40.328Z,3.33
2023-02-26T05:53:07.388Z,1.77
2023-02-26T05:55:34.483Z,5.60
2023-02-26T05:58:01.798Z,0.82
2023-02-26T06:00:28.908Z,2.17
2023-02-26T06:02:57.413Z,6.05
2023-02-26T06:05:24.497Z,2.25
2023-02-26T06:07:51.522Z,10.68
2023-02-26T06:10:18.645Z,2.05
2023-02-26T06:12:45.766Z,2.40
2023-02-26T06:15:13.048Z,4.25
2023-02-26T06:17:41.039Z,2.38
2023-02-26T06:20:09.439Z,3.92
2023-02-26T06:22:36.658Z,3.03
2023-02-26T06:25:04.570Z,1.27
2023-02-26T06:27:31.621Z,0.55
2023-02-26T06:29:58.704Z,2.42
2023-02-26T06:32:30.568Z,1.40
2023-02-26T06:35:00.783Z,3.78
2023-02-26T06:37:28.697Z,0.95
2023-02-26T06:39:55.736Z,2.78
2023-02-26T06:42:23.315Z,2.20
2023-02-26T06:44:50.479Z,3.03
2023-02-26T06:47:17.520Z,3.35
2023-02-26T06:49:44.570Z,6.25
2023-02-26T06:52:11.724Z,5.20
2023-02-26T06:54:38.824Z,3.58
2023-02-26T06:57:05.900Z,5.15
2023-02-26T06:59:33.153Z,3.88
2023-02-26T07:02:00.679Z,1.95
2023-02-26T07:04:28.695Z,4.78
2023-02-26T07:06:55.780Z,4.70
2023-02-26T07:09:22.938Z,5.93
2023-02-26T07:11:50.117Z,1.17
2023-02-26T07:14:17.392Z,1.95
2023-02-26T07:16:44.582Z,2.15
2023-02-26T07:19:11.613Z,5.60
2023-02-26T07:21:38.666Z,1.60
2023-02-26T07:24:06.466Z,3.55
2023-02-26T07:26:33.598Z,7.07
2023-02-26T07:29:00.708Z,2.72
2023-02-26T07:31:28.882Z,4.45
2023-02-26T07:33:56.067Z,5.55
2023-02-26T07:36:23.554Z,3.13
2023-02-26T07:38:50.826Z,3.22
2023-02-26T07:41:17.941Z,2.25
2023-02-26T07:43:45.045Z,3.33
2023-02-26T07:46:12.394Z,1.10
2023-02-26T07:48:39.528Z,4.22
2023-02-26T07:51:07.866Z,4.47
2023-02-26T07:53:35.019Z,1.75
2023-02-26T07:56:02.165Z,2.00
2023-02-26T07:58:29.274Z,3.20
2023-02-26T08:00:57.458Z,4.07
2023-02-26T08:03:24.446Z,1.05
2023-02-26T08:05:51.968Z,2.92
2023-02-26T08:08:19.086Z,3.38
2023-02-26T08:10:46.167Z,5.47
2023-02-26T08:13:13.339Z,4.88
2023-02-26T08:15:43.850Z,6.95
2023-02-26T08:18:12.124Z,3.03
2023-02-26T08:20:40.080Z,0.73
2023-02-26T08:23:07.209Z,6.80
2023-02-26T08:25:34.395Z,2.70
2023-02-26T08:28:03.246Z,2.03
2023-02-26T08:30:30.447Z,5.45
2023-02-26T08:32:58.491Z,8.40
2023-02-26T08:35:25.668Z,10.95
2023-02-26T08:37:55.562Z,3.70
2023-02-26T08:40:23.397Z,0.82
2023-02-26T08:42:50.435Z,4.90
2023-02-26T08:45:17.622Z,0.85
2023-02-26T08:47:56.087Z,2.15
2023-02-26T08:50:25.862Z,3.25
2023-02-26T08:52:53.404Z,5.88
2023-02-26T08:55:21.272Z,3.15
2023-02-26T08:57:48.371Z,0.52
2023-02-26T09:00:24.501Z,6.70
2023-02-26T09:02:52.209Z,1.25
2023-02-26T09:05:19.338Z,0.57
2023-02-26T09:07:46.392Z,3.22
2023-02-26T09:10:14.394Z,0.98
2023-02-26T09:12:41.778Z,1.58
2023-02-26T09:15:10.543Z,3.30
2023-02-26T09:17:38.325Z,0.95
2023-02-26T09:20:06.194Z,3.65
2023-02-26T09:22:33.220Z,2.33
2023-02-26T09:25:00.630Z,2.67
2023-02-26T09:27:28.791Z,2.30
2023-02-26T09:29:55.808Z,5.55
2023-02-26T09:32:23.658Z,1.17
2023-02-26T09:34:51.201Z,4.70
2023-02-26T09:37:18.917Z,6.18
2023-02-26T09:39:46.522Z,1.23
2023-02-26T09:42:27.910Z,3.40
2023-02-26T09:44:59.938Z,2.63
2023-02-26T09:47:39.339Z,2.03
2023-02-26T09:50:13.291Z,0.95
2023-02-26T09:52:47.010Z,3.03
2023-02-26T09:57:53.252Z,1.25
2023-02-26T10:00:20.303Z,1.70
2023-02-26T10:03:17.820Z,1.55
2023-02-26T10:06:19.504Z,4.95
2023-02-26T10:09:00.890Z,2.25
2023-02-26T10:11:43.678Z,2.53
2023-02-26T10:14:16.683Z,1.02
2023-02-26T10:16:50.010Z,1.25
2023-02-26T10:19:20.948Z,2.47
2023-02-26T10:21:48.048Z,5.32
2023-02-26T10:24:37.522Z,1.45
2023-02-26T10:27:10.103Z,1.17
2023-02-26T10:29:45.777Z,1.70
2023-02-26T10:32:43.473Z,0.93
2023-02-26T10:35:15.467Z,1.08
2023-02-26T10:37:51.283Z,1.85
2023-02-26T10:40:36.731Z,0.52
2023-02-26T10:43:09.688Z,0.35
2023-02-26T10:45:54.814Z,1.02
2023-02-26T10:48:32.284Z,1.42
2023-02-26T10:51:01.657Z,0.73
2023-02-26T10:53:31.649Z,1.63
2023-02-26T10:56:10.270Z,0.43
2023-02-26T10:58:37.587Z,0.22
2023-02-26T11:01:11.234Z,1.40
2023-02-26T11:06:07.902Z,1.13
2023-02-26T11:08:42.763Z,1.42
2023-02-26T11:11:10.032Z,1.23
2023-02-26T11:13:38.755Z,3.60
2023-02-26T11:16:13.785Z,3.28
2023-02-26T11:18:54.929Z,1.33
2023-02-26T11:21:34.886Z,0.47
2023-02-26T11:24:07.030Z,0.77
2023-02-26T11:26:38.802Z,1.30
2023-02-26T11:29:06.410Z,2.28
2023-02-26T11:31:34.048Z,0.90
2023-02-26T11:34:08.421Z,1.10
2023-02-26T11:36:40.476Z,2.50
2023-02-26T11:39:13.512Z,1.35
2023-02-26T11:41:41.204Z,1.20
2023-02-26T11:44:14.312Z,0.75
2023-02-26T11:46:53.132Z,1.33
2023-02-26T11:49:23.870Z,0.55
2023-02-26T11:52:26.438Z,5.65
2023-02-26T11:55:00.705Z,1.00
2023-02-26T11:57:30.357Z,4.03
2023-02-26T12:00:01.427Z,1.80
2023-02-26T12:02:37.080Z,2.25
2023-02-26T12:05:07.022Z,2.80
2023-02-26T12:07:34.348Z,1.33
2023-02-26T12:10:01.748Z,0.50
2023-02-26T12:12:43.855Z,0.98
2023-02-26T12:15:28.609Z,2.00
2023-02-26T12:18:11.241Z,0.57
2023-02-26T12:21:02.887Z,5.30
2023-02-26T12:23:51.225Z,10.57
2023-02-26T12:26:33.938Z,0.80
2023-02-26T12:29:38.491Z,1.20
2023-02-26T12:32:16.055Z,2.88
2023-02-26T12:35:02.145Z,1.45
2023-02-26T12:38:08.807Z,1.55
2023-02-26T12:41:05.509Z,1.63
2023-02-26T12:43:44.473Z,0.40
2023-02-26T12:46:33.047Z,3.80
2023-02-26T12:49:47.568Z,2.00
2023-02-26T12:52:36.097Z,0.85
2023-02-26T12:55:09.604Z,0.90
2023-02-26T12:57:58.913Z,2.08
2023-02-26T13:00:35.209Z,2.63
2023-02-26T13:03:25.199Z,4.57
2023-02-26T13:06:36.090Z,0.93
2023-02-26T13:09:21.732Z,0.57
2023-02-26T13:12:47.461Z,0.63
2023-02-26T13:15:26.171Z,1.95
2023-02-26T13:18:17.698Z,3.13
2023-02-26T13:20:58.466Z,2.67
2023-02-26T13:23:37.317Z,4.38
2023-02-26T13:26:08.975Z,1.30
2023-02-26T13:28:41.026Z,7.00
2023-02-26T13:31:19.002Z,0.57
2023-02-26T13:33:48.146Z,0.90
2023-02-26T13:36:16.814Z,0.90
2023-02-26T13:39:04.711Z,1.23
2023-02-26T13:41:57.596Z,0.30
2023-02-26T13:44:37.344Z,1.50
2023-02-26T13:47:10.842Z,2.20
2023-02-26T13:49:45.892Z,1.13
2023-02-26T13:52:25.488Z,1.23
2023-02-26T13:54:53.652Z,0.50
2023-02-26T13:57:32.566Z,0.82
2023-02-26T14:00:16.341Z,1.00
2023-02-26T14:02:50.006Z,1.08
2023-02-26T14:05:48.917Z,0.40
2023-02-26T14:08:15.984Z,0.45
2023-02-26T14:10:55.159Z,2.30
2023-02-26T14:13:36.939Z,0.73
2023-02-26T14:16:09.751Z,0.63
2023-02-26T14:18:47.153Z,0.30
2023-02-26T14:21:32.649Z,0.90
2023-02-26T14:24:06.631Z,0.80
2023-02-26T14:26:36.900Z,3.15
2023-02-26T14:29:06.533Z,0.60
2023-02-26T14:32:06.755Z,1.58
2023-02-26T14:34:55.323Z,0.77
2023-02-26T14:37:25.001Z,0.93
2023-02-26T14:39:59.548Z,7.38
2023-02-26T14:42:37.241Z,2.38
2023-02-26T14:45:16.334Z,2.28
2023-02-26T14:47:48.547Z,1.92
2023-02-26T14:50:19.087Z,1.88
2023-02-26T14:53:22.133Z,0.20
2023-02-26T14:56:02.629Z,1.48
2023-02-26T14:58:58.701Z,1.13
2023-02-26T15:01:25.785Z,1.13
2023-02-26T15:04:37.083Z,1.05
2023-02-26T15:07:28.992Z,2.60
2023-02-26T15:10:23.777Z,2.63
2023-02-26T15:13:25.777Z,4.55
2023-02-26T15:16:05.060Z,2.72
2023-02-26T15:18:48.895Z,0.95
2023-02-26T15:21:57.603Z,5.50
2023-02-26T15:24:24.844Z,3.83
2023-02-26T15:26:54.625Z,1.20
2023-02-26T15:29:28.860Z,1.02
2023-02-26T15:32:04.127Z,1.27
2023-02-26T15:34:33.884Z,1.92
2023-02-26T15:37:01.545Z,2.10
2023-02-26T15:39:29.198Z,2.25
2023-02-26T15:41:57.697Z,0.65
2023-02-26T15:44:32.829Z,3.72
2023-02-26T15:47:02.088Z,1.15
2023-02-26T15:49:35.463Z,2.10
2023-02-26T15:52:05.519Z,1.00
2023-02-26T15:55:00.561Z,0.57
2023-02-26T15:57:29.559Z,1.58
2023-02-26T16:00:16.837Z,1.55
2023-02-26T16:02:45.504Z,2.42
2023-02-26T16:05:16.353Z,1.23
2023-02-26T16:07:43.403Z,2.05
2023-02-26T16:10:38.660Z,1.33
2023-02-26T16:13:11.115Z,1.00
2023-02-26T16:15:39.881Z,2.33
2023-02-26T16:18:12.170Z,1.42
2023-02-26T16:20:44.196Z,0.93
2023-02-26T16:23:16.481Z,4.57
2023-02-26T16:25:54.268Z,1.42
2023-02-26T16:28:28.546Z,1.80
2023-02-26T16:31:00.885Z,3.45
2023-02-26T16:33:33.357Z,1.50
2023-02-26T16:36:14.408Z,2.78
2023-02-26T16:38:44.240Z,1.55
2023-02-26T16:41:12.446Z,4.65
2023-02-26T16:43:45.436Z,2.58
2023-02-26T16:46:22.749Z,5.30
2023-02-26T16:49:02.335Z,3.15
2023-02-26T16:51:32.640Z,3.40
2023-02-26T16:54:04.915Z,2.88
2023-02-26T16:56:35.343Z,3.47
2023-02-26T16:59:04.869Z,2.15
2023-02-26T17:01:37.931Z,3.20
2023-02-26T17:04:07.421Z,2.53
2023-02-26T17:06:39.044Z,3.28
2023-02-26T17:09:10.402Z,3.28
2023-02-26T17:11:44.389Z,3.13
2023-02-26T17:14:22.972Z,4.38
2023-02-26T17:16:51.248Z,5.82
2023-02-26T17:19:19.223Z,1.40
2023-02-26T17:21:49.765Z,3.88
2023-02-26T17:24:20.394Z,4.70
2023-02-26T17:26:48.147Z,3.95
2023-02-26T17:29:19.712Z,7.03
2023-02-26T17:31:47.034Z,2.97
2023-02-26T17:34:14.283Z,7.03
2023-02-26T17:36:41.387Z,2.08
2023-02-26T17:39:13.002Z,6.07
2023-02-26T17:41:43.610Z,3.05
2023-02-26T17:44:10.753Z,16.90
2023-02-26T17:46:37.998Z,12.70
2023-02-26T17:49:05.049Z,2.72
2023-02-26T17:51:32.164Z,3.55
2023-02-26T17:53:59.338Z,4.18
2023-02-26T17:56:30.066Z,3.78
2023-02-26T17:58:59.258Z,2.55
2023-02-26T18:01:30.011Z,2.63
2023-02-26T18:04:00.779Z,6.38
2023-02-26T18:06:33.244Z,7.53
2023-02-26T18:09:01.633Z,3.30
2023-02-26T18:11:29.166Z,2.63
2023-02-26T18:13:57.656Z,6.15
2023-02-26T18:16:34.151Z,3.78
2023-02-26T18:19:02.039Z,2.03
2023-02-26T18:21:29.458Z,3.83
2023-02-26T18:23:57.885Z,3.13
2023-02-26T18:26:28.655Z,4.70
2023-02-26T18:28:55.868Z,11.57
2023-02-26T18:31:24.792Z,3.50
2023-02-26T18:33:52.102Z,3.83
2023-02-26T18:36:35.581Z,3.58
2023-02-26T18:39:05.161Z,3.22
2023-02-26T18:41:32.770Z,1.92
2023-02-26T18:44:00.654Z,3.05
2023-02-26T18:46:30.009Z,3.75
2023-02-26T18:48:57.639Z,3.53
2023-02-26T18:51:25.252Z,5.13
2023-02-26T18:53:53.237Z,4.70
2023-02-26T18:56:20.258Z,4.88
2023-02-26T18:58:47.363Z,4.47
2023-02-26T19:01:14.519Z,4.15
2023-02-26T19:03:41.552Z,4.88
2023-02-26T19:06:09.126Z,4.75
2023-02-26T19:08:36.346Z,5.47
2023-02-26T19:11:03.481Z,4.25
2023-02-26T19:13:30.773Z,9.77
2023-02-26T19:15:58.861Z,5.97
2023-02-26T19:18:26.295Z,10.40
2023-02-26T19:20:53.581Z,5.05
2023-02-26T19:23:20.720Z,4.00
2023-02-26T19:25:48.104Z,9.43
2023-02-26T19:28:15.223Z,6.28
2023-02-26T19:30:42.426Z,8.07
2023-02-26T19:33:09.571Z,7.15
2023-02-26T19:35:36.764Z,3.22
2023-02-26T19:38:03.998Z,7.97
2023-02-26T19:40:31.105Z,5.15
2023-02-26T19:42:58.918Z,5.60
2023-02-26T19:45:26.065Z,14.88
2023-02-26T19:47:53.203Z,6.68
2023-02-26T19:50:22.442Z,5.75
2023-02-26T19:52:49.943Z,8.10
2023-02-26T19:55:17.504Z,5.47
2023-02-26T19:57:44.611Z,10.38
2023-02-26T20:00:14.166Z,6.45
2023-02-26T20:02:41.641Z,5.35
2023-02-26T20:05:11.561Z,4.00
2023-02-26T20:07:38.716Z,5.55
2023-02-26T20:10:06.371Z,9.65
2023-02-26T20:12:33.407Z,10.73
2023-02-26T20:15:00.654Z,10.10
2023-02-26T20:17:32.111Z,6.45
2023-02-26T20:19:59.210Z,8.07
2023-02-26T20:22:26.542Z,15.85
2023-02-26T20:24:54.917Z,18.83
2023-02-26T20:27:22.074Z,17.05
2023-02-26T20:29:50.887Z,24.70
2023-02-26T20:32:18.223Z,14.10
2023-02-26T20:34:45.364Z,12.48
2023-02-26T20:37:12.368Z,13.57
2023-02-26T20:39:39.435Z,9.52
2023-02-26T20:42:06.629Z,10.10
2023-02-26T20:44:33.658Z,9.50
2023-02-26T20:47:02.595Z,9.90
2023-02-26T20:49:30.378Z,9.88
2023-02-26T20:51:58.537Z,11.35
2023-02-26T20:54:25.756Z,10.35
2023-02-26T20:56:53.323Z,15.98
2023-02-26T20:59:20.528Z,12.13
2023-02-26T21:01:51.205Z,13.15
2023-02-26T21:04:18.634Z,8.65
2023-02-26T21:06:45.823Z,17.30
2023-02-26T21:09:13.487Z,10.05
2023-02-26T21:11:41.698Z,9.85
2023-02-26T21:14:09.565Z,12.07
2023-02-26T21:16:37.339Z,10.57
2023-02-26T21:19:04.575Z,15.05
2023-02-26T21:21:31.907Z,14.52
2023-02-26T21:23:59.164Z,8.05
2023-02-26T21:26:28.483Z,11.43
2023-02-26T21:28:55.649Z,14.38
2023-02-26T21:31:22.747Z,13.52
2023-02-26T21:33:49.928Z,10.25
2023-02-26T21:36:16.968Z,9.05
2023-02-26T21:38:44.251Z,11.75
2023-02-26T21:41:11.619Z,14.32
2023-02-26T21:43:39.232Z,15.38
2023-02-26T21:46:06.623Z,15.05
2023-02-26T21:48:33.977Z,12.45
2023-02-26T21:51:04.715Z,10.13
2023-02-26T21:53:31.893Z,17.77
2023-02-26T21:55:58.978Z,11.57
2023-02-26T21:58:26.359Z,12.05
2023-02-26T22:00:53.773Z,11.90
2023-02-26T22:03:20.824Z,8.73
2023-02-26T22:05:51.325Z,15.95
2023-02-26T22:08:19.589Z,12.00
2023-02-26T22:10:46.900Z,20.02
2023-02-26T22:13:14.922Z,16.50
2023-02-26T22:15:42.635Z,13.88
2023-02-26T22:18:09.784Z,10.68
2023-02-26T22:20:37.034Z,13.23
2023-02-26T22:23:04.730Z,8.98
2023-02-26T22:25:31.968Z,10.77
2023-02-26T22:27:59.624Z,13.40
2023-02-26T22:30:27.579Z,12.75
2023-02-26T22:32:55.131Z,13.38
2023-02-26T22:35:22.279Z,13.70
2023-02-26T22:37:49.403Z,12.00
2023-02-26T22:40:16.651Z,13.93
2023-02-26T22:42:44.256Z,14.93
2023-02-26T22:45:13.401Z,10.23
2023-02-26T22:47:40.535Z,11.40
2023-02-26T22:50:07.781Z,15.18
2023-02-26T22:52:34.843Z,11.77
2023-02-26T22:55:02.115Z,14.32
2023-02-26T22:57:29.298Z,15.63
2023-02-26T22:59:56.312Z,10.98
2023-02-26T23:02:24.358Z,10.73
2023-02-26T23:04:51.519Z,9.65
2023-02-26T23:07:18.645Z,9.98
2023-02-26T23:09:45.705Z,9.98
2023-02-26T23:12:12.726Z,14.25
2023-02-26T23:14:40.201Z,9.98
2023-02-26T23:17:08.731Z,9.40
2023-02-26T23:19:36.752Z,11.13
2023-02-26T23:22:03.910Z,19.60
2023-02-26T23:24:30.975Z,12.45
2023-02-26T23:26:58.821Z,17.00
2023-02-26T23:29:25.929Z,13.10
2023-02-26T23:31:53.171Z,16.02
2023-02-26T23:34:20.348Z,15.70
2023-02-26T23:36:47.416Z,16.75
2023-02-26T23:39:15.336Z,13.30
2023-02-26T23:41:42.388Z,14.23
2023-02-26T23:44:09.512Z,7.97
2023-02-26T23:46:37.542Z,15.07
2023-02-26T23:49:04.710Z,7.22
2023-02-26T23:51:31.740Z,14.80
2023-02-26T23:53:58.747Z,12.10
2023-02-26T23:56:25.915Z,13.35
2023-02-26T23:58:53.099Z,15.20
